createdAt,value
2023-03-22T00:01:32.527Z,54.50
2023-03-22T00:04:00.906Z,54.70
2023-03-22T00:06:29.006Z,54.50
2023-03-22T00:08:57.113Z,54.50
2023-03-22T00:11:25.924Z,54.30
2023-03-22T00:13:55.145Z,54.30
2023-03-22T00:16:23.926Z,54.10
2023-03-22T00:18:53.581Z,54.70
2023-03-22T00:21:21.967Z,54.70
2023-03-22T00:23:50.895Z,54.80
2023-03-22T00:26:19.255Z,54.90
2023-03-22T00:28:47.777Z,54.90
2023-03-22T00:31:15.992Z,55.00
2023-03-22T00:33:44.306Z,56.00
2023-03-22T00:36:14.359Z,56.60
2023-03-22T00:38:44.286Z,55.90
2023-03-22T00:41:16.135Z,56.00
2023-03-22T00:43:46.253Z,54.90
2023-03-22T00:46:15.100Z,54.10
2023-03-22T00:48:43.640Z,53.40
2023-03-22T00:51:13.906Z,53.10
2023-03-22T00:53:43.421Z,52.70
2023-03-22T00:56:15.711Z,52.50
2023-03-22T00:59:04.520Z,52.30
2023-03-22T01:01:32.960Z,52.10
2023-03-22T01:04:01.818Z,51.80
2023-03-22T01:06:31.908Z,51.60
2023-03-22T01:09:00.048Z,51.40
2023-03-22T01:11:28.603Z,51.40
2023-03-22T01:13:57.216Z,51.40
2023-03-22T01:16:26.291Z,51.00
2023-03-22T01:18:54.715Z,50.90
2023-03-22T01:21:24.077Z,50.70
2023-03-22T01:23:53.656Z,50.60
2023-03-22T01:26:21.870Z,50.60
2023-03-22T01:28:50.241Z,50.50
2023-03-22T01:31:18.532Z,50.60
2023-03-22T01:33:46.819Z,50.40
2023-03-22T01:36:15.339Z,50.40
2023-03-22T01:38:43.545Z,51.00
2023-03-22T01:41:13.309Z,50.20
2023-03-22T01:43:43.752Z,49.90
2023-03-22T01:46:12.200Z,50.10
2023-03-22T01:48:46.115Z,49.90
2023-03-22T01:51:20.607Z,49.80
2023-03-22T01:54:31.688Z,49.70
2023-03-22T01:57:03.334Z,50.40
2023-03-22T01:59:39.758Z,49.80
2023-03-22T02:02:25.771Z,49.80
2023-03-22T02:05:04.066Z,49.80
2023-03-22T02:07:32.633Z,49.80
2023-03-22T02:10:03.716Z,49.80
2023-03-22T02:12:55.871Z,50.80
2023-03-22T02:15:47.225Z,50.80
2023-03-22T02:18:51.460Z,50.20
2023-03-22T02:21:44.494Z,51.00
2023-03-22T02:24:46.165Z,50.40
2023-03-22T02:27:25.005Z,50.40
2023-03-22T02:30:04.075Z,50.30
2023-03-22T02:32:55.656Z,50.50
2023-03-22T02:35:46.774Z,51.30
2023-03-22T02:38:48.773Z,50.50
2023-03-22T02:41:26.571Z,50.40
2023-03-22T02:44:05.735Z,50.40
2023-03-22T02:46:42.962Z,50.50
2023-03-22T02:49:19.572Z,50.60
2023-03-22T02:51:53.436Z,50.60
2023-03-22T02:54:29.764Z,50.60
2023-03-22T02:57:03.934Z,51.30
2023-03-22T02:59:34.194Z,50.70
2023-03-22T03:02:04.715Z,50.60
2023-03-22T03:04:37.000Z,50.50
2023-03-22T03:07:09.392Z,50.30
2023-03-22T03:09:42.018Z,50.30
2023-03-22T03:12:16.020Z,50.20
2023-03-22T03:14:44.240Z,50.40
2023-03-22T03:17:24.887Z,50.30
2023-03-22T03:20:07.983Z,50.30
2023-03-22T03:22:46.230Z,50.40
2023-03-22T03:25:24.986Z,51.20
2023-03-22T03:28:01.337Z,51.20
2023-03-22T03:30:35.234Z,50.70
2023-03-22T03:33:09.427Z,50.80
2023-03-22T03:35:42.182Z,51.00
2023-03-22T03:38:17.510Z,51.10
2023-03-22T03:40:49.647Z,51.30
2023-03-22T03:43:18.940Z,51.40
2023-03-22T03:45:47.563Z,51.40
2023-03-22T03:48:20.174Z,51.30
2023-03-22T03:50:50.344Z,51.20
2023-03-22T03:53:18.774Z,51.10
2023-03-22T03:55:48.660Z,51.00
2023-03-22T03:58:17.809Z,51.00
2023-03-22T04:00:48.307Z,50.90
2023-03-22T04:03:46.543Z,51.20
2023-03-22T04:06:34.791Z,51.30
2023-03-22T04:09:09.907Z,51.30
2023-03-22T04:11:44.414Z,51.10
2023-03-22T04:14:13.627Z,51.60
2023-03-22T04:16:41.836Z,51.70
2023-03-22T04:19:13.458Z,52.20
2023-03-22T04:21:41.584Z,52.50
2023-03-22T04:24:11.179Z,51.60
2023-03-22T04:26:44.670Z,51.50
2023-03-22T04:29:20.169Z,52.20
2023-03-22T04:31:53.154Z,52.00
2023-03-22T04:34:28.561Z,51.70
2023-03-22T04:37:02.643Z,51.60
2023-03-22T04:39:36.601Z,52.20
2023-03-22T04:42:32.547Z,51.40
2023-03-22T04:45:09.896Z,51.50
2023-03-22T04:47:38.969Z,51.60
2023-03-22T04:50:10.024Z,51.70
2023-03-22T04:52:48.075Z,51.70
2023-03-22T04:55:16.716Z,51.70
2023-03-22T04:57:47.558Z,52.00
2023-03-22T05:00:17.209Z,52.20
2023-03-22T05:02:45.462Z,52.60
2023-03-22T05:05:29.247Z,52.90
2023-03-22T05:07:57.498Z,53.60
2023-03-22T05:10:26.510Z,52.90
2023-03-22T05:12:56.875Z,53.10
2023-03-22T05:15:29.036Z,53.00
2023-03-22T05:17:57.324Z,52.80
2023-03-22T05:20:25.907Z,52.80
2023-03-22T05:23:14.424Z,52.60
2023-03-22T05:25:46.984Z,52.40
2023-03-22T05:28:21.428Z,52.20
2023-03-22T05:31:17.882Z,52.10
2023-03-22T05:33:54.104Z,51.90
2023-03-22T05:36:24.941Z,51.90
2023-03-22T05:39:22.936Z,52.20
2023-03-22T05:41:52.433Z,52.20
2023-03-22T05:44:22.134Z,52.20
2023-03-22T05:47:00.107Z,52.30
2023-03-22T05:49:34.169Z,52.30
2023-03-22T05:52:06.063Z,52.30
2023-03-22T05:54:56.847Z,52.40
2023-03-22T05:57:25.075Z,52.30
2023-03-22T05:59:54.694Z,52.40
2023-03-22T06:02:29.373Z,52.30
2023-03-22T06:04:57.819Z,52.20
2023-03-22T06:07:27.087Z,52.10
2023-03-22T06:09:58.028Z,52.10
2023-03-22T06:12:30.223Z,52.10
2023-03-22T06:15:10.937Z,51.80
2023-03-22T06:18:01.310Z,51.80
2023-03-22T06:20:33.161Z,51.60
2023-03-22T06:23:05.241Z,51.30
2023-03-22T06:25:35.299Z,51.40
2023-03-22T06:28:03.900Z,51.50
2023-03-22T06:30:33.934Z,50.70
2023-03-22T06:33:22.544Z,50.80
2023-03-22T06:35:56.479Z,51.10
2023-03-22T06:38:38.412Z,50.80
2023-03-22T06:41:06.941Z,50.60
2023-03-22T06:43:35.325Z,50.50
2023-03-22T06:46:16.825Z,50.50
2023-03-22T06:48:55.525Z,50.40
2023-03-22T06:51:23.977Z,50.80
2023-03-22T06:53:52.313Z,50.60
2023-03-22T06:56:20.535Z,50.50
2023-03-22T06:58:52.857Z,50.50
2023-03-22T07:01:22.661Z,50.20
2023-03-22T07:03:50.907Z,50.20
2023-03-22T07:06:22.821Z,50.50
2023-03-22T07:08:52.301Z,50.30
2023-03-22T07:11:26.935Z,50.30
2023-03-22T07:14:00.407Z,50.50
2023-03-22T07:16:40.993Z,50.60
2023-03-22T07:19:09.774Z,50.40
2023-03-22T07:21:38.887Z,50.60
2023-03-22T07:24:13.868Z,50.60
2023-03-22T07:26:42.938Z,50.40
2023-03-22T07:29:16.734Z,50.10
2023-03-22T07:31:46.629Z,50.20
2023-03-22T07:34:22.964Z,50.10
2023-03-22T07:37:07.978Z,49.70
2023-03-22T07:39:36.315Z,49.60
2023-03-22T07:42:07.024Z,49.40
2023-03-22T07:44:44.261Z,49.40
2023-03-22T07:47:14.019Z,49.40
2023-03-22T07:49:55.338Z,48.80
2023-03-22T07:52:28.202Z,48.60
2023-03-22T07:54:56.674Z,48.60
2023-03-22T07:57:25.233Z,48.70
2023-03-22T07:59:57.713Z,47.60
2023-03-22T08:02:33.184Z,46.50
2023-03-22T08:05:01.649Z,45.70
2023-03-22T08:07:37.796Z,46.10
2023-03-22T08:10:06.468Z,46.10
2023-03-22T08:12:36.501Z,46.20
2023-03-22T08:15:13.144Z,45.80
2023-03-22T08:17:44.713Z,46.20
2023-03-22T08:20:19.714Z,46.00
2023-03-22T08:22:55.660Z,45.20
2023-03-22T08:25:59.145Z,46.20
2023-03-22T08:28:27.963Z,45.00
2023-03-22T08:30:56.449Z,45.40
2023-03-22T08:33:26.946Z,45.30
2023-03-22T08:36:06.537Z,44.60
2023-03-22T08:38:37.915Z,44.20
2023-03-22T08:41:08.114Z,44.50
2023-03-22T08:43:36.330Z,45.30
2023-03-22T08:46:04.781Z,45.40
2023-03-22T08:48:38.049Z,46.50
2023-03-22T08:51:25.254Z,45.10
2023-03-22T08:54:13.008Z,46.10
2023-03-22T08:56:54.026Z,45.50
2023-03-22T08:59:41.715Z,45.20
2023-03-22T09:02:33.107Z,44.10
2023-03-22T09:05:03.583Z,44.00
2023-03-22T09:07:33.264Z,44.40
2023-03-22T09:10:18.996Z,44.30
2023-03-22T09:12:49.947Z,43.30
2023-03-22T09:15:18.599Z,43.60
2023-03-22T09:17:55.752Z,43.60
2023-03-22T09:20:26.022Z,43.40
2023-03-22T09:22:54.586Z,44.20
2023-03-22T09:25:23.874Z,44.00
2023-03-22T09:27:53.500Z,41.50
2023-03-22T09:30:21.782Z,41.30
2023-03-22T09:32:50.421Z,41.60
2023-03-22T09:35:21.476Z,41.10
2023-03-22T09:38:06.049Z,40.00
2023-03-22T09:40:36.164Z,40.50
2023-03-22T09:43:07.461Z,41.20
2023-03-22T09:45:39.868Z,40.20
2023-03-22T09:48:15.782Z,40.90
2023-03-22T09:50:49.344Z,40.40
2023-03-22T09:53:19.798Z,40.20
2023-03-22T09:55:54.241Z,39.20
2023-03-22T09:58:29.794Z,39.40
2023-03-22T10:01:01.592Z,40.90
2023-03-22T10:03:48.644Z,39.50
2023-03-22T10:06:20.559Z,38.90
2023-03-22T10:08:58.297Z,38.20
2023-03-22T10:11:36.282Z,37.70
2023-03-22T10:14:13.272Z,36.90
2023-03-22T10:16:42.121Z,38.10
2023-03-22T10:19:25.681Z,37.60
2023-03-22T10:21:57.449Z,36.90
2023-03-22T10:24:29.706Z,37.40
2023-03-22T10:26:57.888Z,37.30
2023-03-22T10:29:33.419Z,35.90
2023-03-22T10:32:15.303Z,36.20
2023-03-22T10:34:44.023Z,35.20
2023-03-22T10:37:16.491Z,36.20
2023-03-22T10:39:49.809Z,36.60
2023-03-22T10:42:21.791Z,36.20
2023-03-22T10:44:54.694Z,36.20
2023-03-22T10:47:31.785Z,37.30
2023-03-22T10:50:02.840Z,35.90
2023-03-22T10:52:42.178Z,36.30
2023-03-22T10:55:14.629Z,35.60
2023-03-22T10:57:44.098Z,34.90
2023-03-22T11:00:17.928Z,35.20
2023-03-22T11:02:52.293Z,34.90
2023-03-22T11:05:23.860Z,34.80
2023-03-22T11:07:52.612Z,34.20
2023-03-22T11:10:27.476Z,33.90
2023-03-22T11:12:58.115Z,34.90
2023-03-22T11:15:31.653Z,33.10
2023-03-22T11:18:02.688Z,31.70
2023-03-22T11:20:31.502Z,32.10
2023-03-22T11:23:04.887Z,31.10
2023-03-22T11:25:37.664Z,31.70
2023-03-22T11:28:16.492Z,30.30
2023-03-22T11:30:59.834Z,29.60
2023-03-22T11:33:28.209Z,28.70
2023-03-22T11:35:58.053Z,27.60
2023-03-22T11:38:29.607Z,28.60
2023-03-22T11:41:02.492Z,28.40
2023-03-22T11:43:36.855Z,30.30
2023-03-22T11:46:06.772Z,29.30
2023-03-22T11:48:36.793Z,29.30
2023-03-22T11:51:09.620Z,27.90
2023-03-22T11:53:41.545Z,27.70
2023-03-22T11:56:17.887Z,28.70
2023-03-22T11:59:00.054Z,28.50
2023-03-22T12:01:48.348Z,29.00
2023-03-22T12:04:20.801Z,28.30
2023-03-22T12:06:50.551Z,27.80
2023-03-22T12:09:27.116Z,28.00
2023-03-22T12:11:58.583Z,27.80
2023-03-22T12:14:32.188Z,29.30
2023-03-22T12:17:07.131Z,27.90
2023-03-22T12:19:53.110Z,29.20
2023-03-22T12:22:25.770Z,28.60
2023-03-22T12:24:54.096Z,27.90
2023-03-22T12:27:27.917Z,28.40
2023-03-22T12:30:00.926Z,26.80
2023-03-22T12:32:33.640Z,26.40
2023-03-22T12:35:16.573Z,27.40
2023-03-22T12:37:55.377Z,26.80
2023-03-22T12:40:27.164Z,27.40
2023-03-22T12:43:10.518Z,26.00
2023-03-22T12:45:43.662Z,26.70
2023-03-22T12:48:18.918Z,26.90
2023-03-22T12:50:52.256Z,26.50
2023-03-22T12:53:23.318Z,27.50
2023-03-22T12:55:52.561Z,25.80
2023-03-22T12:58:26.815Z,27.30
2023-03-22T13:00:58.779Z,27.80
2023-03-22T13:03:30.111Z,25.60
2023-03-22T13:06:03.062Z,26.90
2023-03-22T13:09:15.788Z,26.00
2023-03-22T13:11:46.146Z,25.90
2023-03-22T13:14:58.143Z,25.50
2023-03-22T13:17:44.764Z,25.80
2023-03-22T13:20:28.636Z,25.70
2023-03-22T13:23:10.561Z,26.80
2023-03-22T13:25:40.256Z,26.90
2023-03-22T13:28:24.535Z,26.50
2023-03-22T13:30:55.657Z,26.50
2023-03-22T13:33:28.577Z,25.40
2023-03-22T13:35:59.081Z,26.40
2023-03-22T13:38:29.667Z,26.10
2023-03-22T13:41:02.878Z,27.00
2023-03-22T13:43:34.589Z,26.70
2023-03-22T13:46:25.010Z,26.20
2023-03-22T13:49:00.429Z,26.90
2023-03-22T13:51:31.954Z,26.50
2023-03-22T13:54:05.790Z,26.60
2023-03-22T13:56:52.861Z,27.70
2023-03-22T13:59:27.196Z,27.70
2023-03-22T14:02:00.282Z,26.80
2023-03-22T14:04:35.006Z,26.90
2023-03-22T14:07:13.248Z,27.10
2023-03-22T14:09:46.467Z,27.80
2023-03-22T14:12:21.313Z,28.50
2023-03-22T14:14:53.701Z,27.20
2023-03-22T14:17:35.116Z,26.70
2023-03-22T14:20:08.383Z,27.00
